Time;durP1;ratioP1;P1;durP2;ratioP2;P2;SDS_P1;SDS_P2;PMS_P1;PMS_P2;Temp;Humidity;BMP_temperature;BMP_pressure;BME280_temperature;BME280_humidity;BME280_pressure;Samples;Min_cycle;Max_cycle;Signal;HPM_P1;HPM_P2
2022/12/13 00:01:57;;;;;;;56.15;24.20;;;;;;;-6.25;100.00;101237.69;4990962;28;20037;-74
2022/12/13 00:04:23;;;;;;;61.42;25.48;;;;;;;-6.31;100.00;101232.44;5001219;28;20402;-76
2022/12/13 00:06:50;;;;;;;59.85;23.75;;;;;;;-6.34;100.00;101240.19;5003072;28;20045;-72
2022/12/13 00:09:17;;;;;;;56.75;25.08;;;;;;;-6.40;100.00;101237.53;4992386;28;20054;-76
2022/12/13 00:11:43;;;;;;;63.92;25.63;;;;;;;-6.29;100.00;101234.19;4988243;28;20042;-76
2022/12/13 00:14:10;;;;;;;63.17;25.15;;;;;;;-6.23;100.00;101229.91;5001390;28;20412;-74
2022/12/13 00:16:36;;;;;;;61.17;24.02;;;;;;;-6.21;100.00;101220.44;4998118;28;20156;-73
2022/12/13 00:19:01;;;;;;;68.80;25.10;;;;;;;-6.30;100.00;101221.22;5001789;28;20046;-73
2022/12/13 00:21:30;;;;;;;62.30;24.23;;;;;;;-6.52;100.00;101214.91;4999535;28;20046;-76
2022/12/13 00:23:57;;;;;;;55.13;20.90;;;;;;;-6.74;100.00;101216.34;4998710;28;20045;-75
2022/12/13 00:26:26;;;;;;;56.75;21.05;;;;;;;-6.60;100.00;101219.13;4999521;28;20087;-74
2022/12/13 00:28:52;;;;;;;59.33;23.95;;;;;;;-6.59;100.00;101219.13;5002681;28;20048;-74
2022/12/13 00:31:19;;;;;;;67.15;25.13;;;;;;;-6.54;100.00;101216.59;4979799;28;20041;-72
2022/12/13 00:33:45;;;;;;;58.70;22.25;;;;;;;-6.48;100.00;101216.66;5002433;28;20030;-75
2022/12/13 00:36:10;;;;;;;64.80;23.05;;;;;;;-6.53;100.00;101220.91;4978058;28;20061;-75
2022/12/13 00:38:37;;;;;;;57.10;22.52;;;;;;;-6.66;100.00;101219.91;4991338;28;20030;-74
2022/12/13 00:41:33;;;;;;;52.08;22.52;;;;;;;-6.51;100.00;101219.22;5001147;28;20076;-74
2022/12/13 00:43:59;;;;;;;59.10;24.90;;;;;;;-6.41;100.00;101208.13;4987016;28;20042;-75
2022/12/13 00:46:26;;;;;;;53.55;23.13;;;;;;;-6.35;100.00;101217.69;4984544;28;20157;-76
2022/12/13 00:48:57;;;;;;;61.30;24.42;;;;;;;-6.62;100.00;101215.66;4997307;28;20077;-74
2022/12/13 00:51:24;;;;;;;51.90;23.45;;;;;;;-6.56;100.00;101208.81;5000172;28;20068;-75
2022/12/13 00:53:50;;;;;;;53.03;22.58;;;;;;;-6.45;100.00;101215.84;4981374;28;20050;-73
2022/12/13 00:56:22;;;;;;;55.92;23.02;;;;;;;-6.44;100.00;101215.84;5004462;28;20049;-74
2022/12/13 00:58:48;;;;;;;58.47;24.77;;;;;;;-6.43;100.00;101215.00;4986467;28;20041;-74
2022/12/13 01:01:16;;;;;;;54.67;24.42;;;;;;;-6.39;100.00;101216.78;4977783;28;20041;-73
2022/12/13 01:03:43;;;;;;;57.15;24.52;;;;;;;-6.43;100.00;101212.41;4999405;28;20047;-73
2022/12/13 01:06:16;;;;;;;60.15;23.77;;;;;;;-6.30;100.00;101216.03;5004482;28;20045;-74
2022/12/13 01:08:43;;;;;;;60.88;24.85;;;;;;;-6.35;100.00;101212.50;5004249;28;20046;-72
2022/12/13 01:11:10;;;;;;;68.18;25.30;;;;;;;-6.40;100.00;101220.22;4985215;28;20156;-73
2022/12/13 01:13:36;;;;;;;65.82;24.33;;;;;;;-6.54;100.00;101216.59;4988253;28;20038;-74
2022/12/13 01:16:03;;;;;;;48.65;24.15;;;;;;;-6.45;100.00;101210.66;4999760;28;20069;-75
2022/12/13 01:18:29;;;;;;;59.25;24.30;;;;;;;-6.52;100.00;101207.13;4985953;28;20039;-75
2022/12/13 01:21:07;;;;;;;55.47;23.75;;;;;;;-6.72;100.00;101206.00;5000181;28;20041;-75
2022/12/13 01:23:33;;;;;;;52.53;22.25;;;;;;;-6.99;100.00;101209.97;4984617;28;20342;-73
2022/12/13 01:26:09;;;;;;;63.38;24.27;;;;;;;-6.83;100.00;101211.03;4999393;28;20469;-75
2022/12/13 01:28:35;;;;;;;58.78;24.95;;;;;;;-6.79;100.00;101218.00;4999215;28;20245;-74
2022/12/13 01:31:03;;;;;;;59.00;24.52;;;;;;;-6.68;100.00;101207.75;5000432;28;20117;-73
2022/12/13 01:33:29;;;;;;;67.10;25.67;;;;;;;-6.64;100.00;101206.97;4992397;28;20323;-74
2022/12/13 01:35:55;;;;;;;62.15;24.73;;;;;;;-6.67;100.00;101210.41;4999676;28;20060;-73
2022/12/13 01:38:21;;;;;;;67.63;26.70;;;;;;;-6.72;100.00;101213.78;4993455;28;20498;-74
2022/12/13 01:40:56;;;;;;;64.97;27.02;;;;;;;-6.63;100.00;101211.28;5004353;28;20057;-73
2022/12/13 01:43:29;;;;;;;60.92;27.00;;;;;;;-6.73;100.00;101206.84;4996101;28;20085;-74
2022/12/13 01:46:03;;;;;;;60.70;26.33;;;;;;;-6.92;100.00;101216.97;4999192;28;20086;-74
2022/12/13 01:48:38;;;;;;;59.90;26.90;;;;;;;-6.83;100.00;101218.81;4986588;28;20065;-74
2022/12/13 01:51:10;;;;;;;71.10;26.40;;;;;;;-6.67;100.00;101209.53;4988343;28;20042;-74
2022/12/13 01:53:39;;;;;;;64.63;26.60;;;;;;;-6.67;100.00;101210.41;4999658;28;20421;-74
2022/12/13 01:56:13;;;;;;;61.83;24.25;;;;;;;-6.65;100.00;101213.88;5002603;28;20049;-74
2022/12/13 01:58:40;;;;;;;50.05;22.88;;;;;;;-6.69;100.00;101213.81;4997852;28;20037;-77
2022/12/13 02:01:06;;;;;;;56.95;24.42;;;;;;;-6.63;100.00;101219.06;4987734;28;20038;-74
2022/12/13 02:03:34;;;;;;;59.88;22.88;;;;;;;-6.69;100.00;101214.69;4993588;28;20034;-75
2022/12/13 02:06:09;;;;;;;57.58;23.30;;;;;;;-6.62;100.00;101221.69;5002064;28;20409;-73
2022/12/13 02:08:37;;;;;;;58.50;24.65;;;;;;;-6.75;100.00;101216.31;5004347;28;20554;-73
2022/12/13 02:11:03;;;;;;;75.13;26.95;;;;;;;-6.73;100.00;101218.06;4981422;28;20038;-74
2022/12/13 02:13:29;;;;;;;55.90;23.17;;;;;;;-6.74;100.00;101205.09;5000445;28;20048;-74
2022/12/13 02:16:05;;;;;;;55.83;21.48;;;;;;;-7.00;100.00;101217.72;4993540;28;20041;-74
2022/12/13 02:18:49;;;;;;;51.38;20.92;;;;;;;-7.08;100.00;101215.00;4974994;28;20030;-74
2022/12/13 02:21:26;;;;;;;52.97;20.77;;;;;;;-7.15;100.00;101214.06;5002370;28;20038;-75
2022/12/13 02:24:11;;;;;;;56.10;22.05;;;;;;;-7.23;100.00;101214.78;5004863;28;20045;-74
2022/12/13 02:26:55;;;;;;;49.53;20.88;;;;;;;-7.29;100.00;101212.97;5003629;28;20044;-74
2022/12/13 02:29:32;;;;;;;47.35;20.42;;;;;;;-7.42;100.00;101211.94;4983856;28;20438;-73
2022/12/13 02:32:16;;;;;;;48.70;19.80;;;;;;;-7.42;100.00;101214.53;5004356;28;20096;-74
2022/12/13 02:35:00;;;;;;;48.30;20.73;;;;;;;-7.30;100.00;101206.06;4990530;28;20093;-73
2022/12/13 02:37:54;;;;;;;56.60;22.35;;;;;;;-7.27;100.00;101207.84;4990014;28;20803;-73
2022/12/13 02:40:53;;;;;;;57.22;23.55;;;;;;;-7.17;100.00;101205.41;4996126;28;20161;-77
2022/12/13 02:43:51;;;;;;;56.08;23.67;;;;;;;-7.17;100.00;101205.41;4901747;29;20092;-76
2022/12/13 02:46:21;;;;;;;54.88;22.30;;;;;;;-7.24;100.00;101206.13;4899553;29;20983;-76
2022/12/13 02:48:50;;;;;;;60.03;23.30;;;;;;;-7.18;100.00;101198.47;4903757;29;20473;-77
2022/12/13 02:51:17;;;;;;;59.10;24.38;;;;;;;-7.19;100.00;101193.25;4888014;29;20437;-75
2022/12/13 02:53:44;;;;;;;58.88;22.60;;;;;;;-7.17;100.00;101194.16;4897336;29;20056;-74
2022/12/13 02:56:09;;;;;;;63.55;23.92;;;;;;;-7.15;100.00;101197.63;4888166;29;20047;-74
2022/12/13 02:58:41;;;;;;;57.65;22.98;;;;;;;-7.09;100.00;101197.72;4884487;29;20059;-74
2022/12/13 03:01:55;;;;;;;75.10;25.35;;;;;;;-7.07;100.00;101198.63;4901396;29;20484;-74
2022/12/13 03:04:31;;;;;;;62.88;24.33;;;;;;;-7.01;100.00;101190.94;4825137;29;20100;-75
2022/12/13 03:07:25;;;;;;;58.25;23.13;;;;;;;-7.03;100.00;101192.63;4826422;29;20613;-74
2022/12/13 03:10:14;;;;;;;54.03;22.00;;;;;;;-7.16;100.00;101189.00;4827198;29;20054;-75
2022/12/13 03:15:55;;;;;;;58.78;24.10;;;;;;;-7.24;100.00;101181.97;4810454;29;20507;-75
2022/12/13 03:18:24;;;;;;;62.90;24.25;;;;;;;-7.32;100.00;101181.88;4809838;29;20050;-75
2022/12/13 03:20:52;;;;;;;63.70;23.08;;;;;;;-7.26;100.00;101181.06;4878140;29;20841;-74
2022/12/13 03:23:19;;;;;;;70.65;25.33;;;;;;;-7.31;100.00;101181.88;4886410;29;20056;-73
2022/12/13 03:25:47;;;;;;;49.72;21.83;;;;;;;-7.23;100.00;101187.16;4903651;29;20090;-72
2022/12/13 03:28:13;;;;;;;64.60;24.83;;;;;;;-7.23;100.00;101187.16;4903291;29;20068;-74
2022/12/13 03:30:38;;;;;;;53.70;24.13;;;;;;;-7.44;100.00;101184.25;4901852;29;20039;-73
2022/12/13 03:33:04;;;;;;;63.05;24.55;;;;;;;-7.45;100.00;101185.09;4901033;29;20054;-75
2022/12/13 03:35:30;;;;;;;67.72;26.88;;;;;;;-7.30;100.00;101185.34;4955619;28;20068;-75
2022/12/13 03:37:56;;;;;;;58.35;23.95;;;;;;;-7.24;100.00;101182.81;4981099;28;20054;-74
2022/12/13 03:40:22;;;;;;;61.03;25.10;;;;;;;-7.35;100.00;101182.66;4968042;28;20209;-74
2022/12/13 03:42:50;;;;;;;71.63;28.23;;;;;;;-7.26;100.00;101187.13;4979987;28;20030;-73
2022/12/13 03:45:22;;;;;;;77.03;29.58;;;;;;;-7.24;100.00;101184.56;4981627;28;20060;-75
2022/12/13 03:47:48;;;;;;;68.43;26.52;;;;;;;-7.28;100.00;101183.63;4979707;28;20046;-75
2022/12/13 03:50:13;;;;;;;67.38;27.98;;;;;;;-7.35;100.00;101180.09;4979501;28;20093;-74
2022/12/13 03:52:43;;;;;;;62.10;25.90;;;;;;;-7.45;100.00;101178.19;4979761;28;20491;-75
2022/12/13 03:55:09;;;;;;;62.75;24.73;;;;;;;-7.53;100.00;101176.34;4976633;28;20053;-75
2022/12/13 03:57:34;;;;;;;61.95;24.17;;;;;;;-7.50;100.00;101179.84;4963962;28;20038;-73
2022/12/13 03:59:59;;;;;;;65.75;25.08;;;;;;;-7.56;100.00;101178.03;4982745;28;20042;-74
2022/12/13 04:02:25;;;;;;;66.10;26.48;;;;;;;-7.47;100.00;101181.63;4980071;28;20156;-75
2022/12/13 04:04:56;;;;;;;74.32;26.27;;;;;;;-7.41;100.00;101177.41;4975172;28;20110;-76
2022/12/13 04:07:22;;;;;;;69.15;27.88;;;;;;;-7.39;100.00;101180.00;4977125;28;20034;-74
2022/12/13 04:09:47;;;;;;;64.93;27.95;;;;;;;-7.37;100.00;101180.94;4982161;28;20746;-75
2022/12/13 04:15:00;;;;;;;61.83;23.60;;;;;;;-7.65;100.00;101177.91;4980394;28;20042;-75
2022/12/13 04:17:29;;;;;;;56.20;22.90;;;;;;;-7.74;100.00;101185.50;4981925;28;20500;-75
2022/12/13 04:19:55;;;;;;;61.33;22.50;;;;;;;-7.77;100.00;101184.59;4980344;28;20035;-74
2022/12/13 04:22:20;;;;;;;58.50;24.02;;;;;;;-7.75;100.00;101177.72;4986848;28;20046;-74
2022/12/13 04:24:46;;;;;;;62.38;25.83;;;;;;;-7.82;100.00;101181.94;5002481;28;20108;-75
2022/12/13 04:27:11;;;;;;;65.47;28.45;;;;;;;-7.75;100.00;101186.34;4999877;28;20343;-74
2022/12/13 04:29:36;;;;;;;73.43;29.02;;;;;;;-7.64;100.00;101182.22;4989503;28;20099;-75
2022/12/13 04:32:03;;;;;;;63.83;27.60;;;;;;;-7.63;100.00;101177.91;4999705;28;20137;-77
2022/12/13 04:34:33;;;;;;;58.70;27.83;;;;;;;-7.70;100.00;101182.13;4968573;28;20470;-76
2022/12/13 04:36:58;;;;;;;70.95;27.45;;;;;;;-7.71;100.00;101176.94;4985897;28;20038;-75
2022/12/13 04:39:24;;;;;;;70.38;27.30;;;;;;;-7.63;100.00;101183.97;4989189;28;20111;-75
2022/12/13 04:41:51;;;;;;;70.88;26.88;;;;;;;-7.63;100.00;101178.81;5000200;28;20077;-74
2022/12/13 04:44:17;;;;;;;65.22;27.67;;;;;;;-7.57;100.00;101183.22;4999185;28;20178;-74
2022/12/13 04:46:43;;;;;;;72.95;27.75;;;;;;;-7.50;100.00;101182.44;4985595;28;20293;-73
2022/12/13 04:49:08;;;;;;;73.22;29.00;;;;;;;-7.63;100.00;101171.03;5001238;28;20346;-73
2022/12/13 04:51:34;;;;;;;60.85;26.30;;;;;;;-7.67;100.00;101177.00;4974580;28;20103;-75
2022/12/13 04:54:06;;;;;;;71.57;27.63;;;;;;;-7.74;100.00;101176.88;4978470;28;20691;-75
2022/12/13 04:56:32;;;;;;;66.03;26.48;;;;;;;-7.78;100.00;101177.66;5000994;28;20151;-74
2022/12/13 04:58:57;;;;;;;65.85;27.48;;;;;;;-7.79;100.00;101184.56;5001157;28;20042;-75
2022/12/13 05:01:30;;;;;;;65.40;26.67;;;;;;;-7.74;100.00;101179.47;4980866;28;20649;-75
2022/12/13 05:04:02;;;;;;;73.32;27.67;;;;;;;-7.69;100.00;101183.00;4998981;28;20149;-74
2022/12/13 05:06:27;;;;;;;68.93;26.98;;;;;;;-7.82;100.00;101176.75;4995238;28;20037;-75
2022/12/13 05:08:52;;;;;;;71.88;28.88;;;;;;;-7.74;100.00;101180.31;4981400;28;20495;-74
2022/12/13 05:11:18;;;;;;;70.60;27.38;;;;;;;-7.90;100.00;101179.19;4998693;28;20041;-75
2022/12/13 05:13:44;;;;;;;70.85;27.10;;;;;;;-7.76;100.00;101173.41;4990518;28;20042;-74
2022/12/13 05:16:09;;;;;;;68.53;26.35;;;;;;;-7.98;100.00;101170.47;4991441;28;20049;-73
2022/12/13 05:18:36;;;;;;;60.80;26.80;;;;;;;-7.83;100.00;101167.25;4999401;28;20044;-73
2022/12/13 05:21:22;;;;;;;62.50;26.80;;;;;;;-7.76;100.00;101163.03;4998779;28;20453;-73
2022/12/13 05:23:47;;;;;;;69.88;27.70;;;;;;;-7.77;100.00;101162.19;4997409;28;20251;-73
2022/12/13 05:26:13;;;;;;;65.72;27.30;;;;;;;-7.83;100.00;101159.50;4984711;28;20080;-74
2022/12/13 05:28:44;;;;;;;64.97;27.17;;;;;;;-7.87;100.00;101158.56;4997895;28;20044;-75
2022/12/13 05:31:11;;;;;;;81.22;30.55;;;;;;;-7.86;100.00;101160.31;4976949;28;20137;-74
2022/12/13 05:33:37;;;;;;;68.50;28.60;;;;;;;-7.84;100.00;101157.72;4998763;28;20435;-74
2022/12/13 05:36:04;;;;;;;60.33;26.60;;;;;;;-7.90;100.00;101162.81;4982841;28;20030;-74
2022/12/13 05:38:30;;;;;;;68.63;28.02;;;;;;;-7.83;100.00;101162.09;4983557;28;20505;-73
2022/12/13 05:40:56;;;;;;;65.45;27.52;;;;;;;-7.80;100.00;101153.47;5000148;28;20033;-73
2022/12/13 05:43:22;;;;;;;69.20;28.30;;;;;;;-7.83;100.00;101152.59;5001762;28;20765;-74
2022/12/13 05:45:49;;;;;;;55.63;23.77;;;;;;;-8.31;100.00;101159.50;5003715;28;20050;-74
2022/12/13 05:48:16;;;;;;;59.40;25.17;;;;;;;-8.19;100.00;101160.59;4997505;28;20044;-74
2022/12/13 05:50:41;;;;;;;65.85;25.75;;;;;;;-8.15;100.00;101149.44;4997354;28;20049;-75
2022/12/13 05:53:07;;;;;;;57.08;24.48;;;;;;;-8.11;100.00;101150.38;4997493;28;20081;-75
2022/12/13 05:55:32;;;;;;;56.00;24.08;;;;;;;-8.12;100.00;101152.09;4979286;28;20058;-74
2022/12/13 05:58:02;;;;;;;65.90;27.58;;;;;;;-8.10;100.00;101144.34;4997532;28;20044;-73
2022/12/13 06:00:27;;;;;;;73.55;28.77;;;;;;;-8.01;100.00;101143.66;4997738;28;20044;-75
2022/12/13 06:02:53;;;;;;;65.25;25.98;;;;;;;-7.87;100.00;101152.53;4998328;28;20042;-74
2022/12/13 06:05:19;;;;;;;67.00;26.88;;;;;;;-7.91;100.00;101143.84;4999958;28;20127;-74
2022/12/13 06:07:44;;;;;;;76.80;28.02;;;;;;;-7.85;100.00;101148.22;4988068;28;20034;-75
2022/12/13 06:10:10;;;;;;;77.90;30.00;;;;;;;-7.76;100.00;101144.94;5003793;28;20069;-74
2022/12/13 06:12:36;;;;;;;66.03;26.60;;;;;;;-7.89;100.00;101143.84;4998718;28;20034;-73
2022/12/13 06:15:02;;;;;;;68.65;26.60;;;;;;;-8.10;100.00;101144.34;5000416;28;20042;-74
2022/12/13 06:17:35;;;;;;;66.57;26.88;;;;;;;-8.15;100.00;101146.00;4981423;28;20042;-73
2022/12/13 06:20:03;;;;;;;66.18;25.85;;;;;;;-8.14;100.00;101135.66;4983484;28;20034;-74
2022/12/13 06:22:28;;;;;;;66.18;26.98;;;;;;;-8.15;100.00;101139.09;5001652;28;20053;-74
2022/12/13 06:24:54;;;;;;;71.32;27.02;;;;;;;-8.19;100.00;101142.47;4987217;28;20933;-74
2022/12/13 06:27:20;;;;;;;62.83;25.58;;;;;;;-8.23;100.00;101134.63;4999842;28;20045;-73
2022/12/13 06:29:45;;;;;;;64.15;26.95;;;;;;;-8.16;100.00;101131.31;4999385;28;20459;-75
2022/12/13 06:32:10;;;;;;;62.72;27.15;;;;;;;-8.15;100.00;101127.88;4982872;28;20049;-74
2022/12/13 06:34:40;;;;;;;62.60;26.17;;;;;;;-8.14;100.00;101122.72;4982687;28;20042;-75
2022/12/13 06:37:07;;;;;;;56.40;23.80;;;;;;;-8.24;100.00;101127.72;4996617;28;20108;-74
2022/12/13 06:39:33;;;;;;;59.00;24.77;;;;;;;-8.33;100.00;101123.28;4993761;28;20652;-74
2022/12/13 06:42:06;;;;;;;63.88;26.70;;;;;;;-8.25;100.00;101124.28;5003829;28;20287;-75
2022/12/13 06:44:33;;;;;;;65.68;24.70;;;;;;;-8.13;100.00;101131.41;5005168;28;20050;-73
2022/12/13 06:47:05;;;;;;;57.13;24.17;;;;;;;-8.12;100.00;101134.00;5003376;28;20467;-75
2022/12/13 06:49:31;;;;;;;51.28;23.27;;;;;;;-8.17;100.00;101134.78;4988111;28;20034;-72
2022/12/13 06:52:11;;;;;;;51.85;23.02;;;;;;;-8.06;100.00;101129.78;4989877;28;20760;-75
2022/12/13 06:54:36;;;;;;;66.88;23.17;;;;;;;-8.11;100.00;101130.56;5002785;28;20042;-75
2022/12/13 06:57:02;;;;;;;48.90;21.40;;;;;;;-8.14;100.00;101127.03;5001054;28;20041;-74
2022/12/13 06:59:27;;;;;;;55.00;24.08;;;;;;;-8.18;100.00;101131.31;5010353;28;20406;-75
2022/12/13 07:01:53;;;;;;;58.53;24.67;;;;;;;-8.18;100.00;101136.47;5001551;28;20144;-74
2022/12/13 07:04:18;;;;;;;61.95;25.45;;;;;;;-8.20;100.00;101132.97;5003365;28;20034;-74
2022/12/13 07:06:43;;;;;;;63.13;23.92;;;;;;;-8.19;100.00;101129.53;4994323;28;20087;-75
2022/12/13 07:09:12;;;;;;;65.03;24.23;;;;;;;-8.15;100.00;101135.66;4984290;28;20058;-76
2022/12/13 07:11:37;;;;;;;65.18;25.55;;;;;;;-8.13;100.00;101136.56;5004449;28;20042;-75
2022/12/13 07:14:03;;;;;;;58.47;23.65;;;;;;;-8.14;100.00;101132.22;5005597;28;20042;-73
2022/12/13 07:16:36;;;;;;;66.35;25.00;;;;;;;-8.13;100.00;101129.69;4988231;28;20095;-74
2022/12/13 07:19:03;;;;;;;64.00;25.05;;;;;;;-8.09;100.00;101125.41;5004562;28;20041;-74
2022/12/13 07:21:30;;;;;;;72.22;28.50;;;;;;;-8.02;100.00;101136.75;4991316;28;20061;-75
2022/12/13 07:23:56;;;;;;;68.18;27.15;;;;;;;-8.09;100.00;101131.44;4987177;28;20053;-76
2022/12/13 07:26:23;;;;;;;64.97;27.40;;;;;;;-8.01;100.00;101129.00;5003709;28;20104;-74
2022/12/13 07:28:52;;;;;;;66.78;26.77;;;;;;;-8.00;100.00;101135.03;5002870;28;20037;-75
2022/12/13 07:31:18;;;;;;;77.32;27.95;;;;;;;-7.99;100.00;101139.38;5001327;28;20045;-74
2022/12/13 07:33:43;;;;;;;75.25;27.75;;;;;;;-8.02;100.00;101139.34;4988978;28;20049;-74
2022/12/13 07:36:21;;;;;;;72.82;29.83;;;;;;;-7.93;100.00;101142.03;4991482;28;20072;-75
2022/12/13 07:38:55;;;;;;;81.22;29.38;;;;;;;-7.89;100.00;101138.66;5004426;28;20046;-75
2022/12/13 07:41:21;;;;;;;76.45;28.63;;;;;;;-7.91;100.00;101149.00;4988713;28;20532;-75
2022/12/13 07:43:47;;;;;;;77.97;29.05;;;;;;;-7.95;100.00;101149.78;4984441;28;20052;-75
2022/12/13 07:46:18;;;;;;;65.72;26.45;;;;;;;-7.97;100.00;101153.22;4977829;28;20038;-75
2022/12/13 07:48:44;;;;;;;43.53;19.50;;;;;;;-7.91;100.00;101145.53;4994094;28;20025;-75
2022/12/13 07:51:10;;;;;;;65.43;26.30;;;;;;;-8.04;100.00;101144.47;5003638;28;20037;-73
2022/12/13 07:53:43;;;;;;;56.50;22.17;;;;;;;-8.49;100.00;101144.53;5005356;28;20862;-75
2022/12/13 07:56:10;;;;;;;56.45;22.30;;;;;;;-8.35;100.00;101151.69;5004864;28;20398;-74
2022/12/13 07:58:41;;;;;;;60.95;24.65;;;;;;;-8.31;100.00;101152.63;5002757;28;20261;-75
2022/12/13 13:11:49;;;;;;;64.60;26.40;;;;;;;-2.94;100.00;101036.69;5135712;27;20130;-87
2022/12/13 13:14:28;;;;;;;71.35;26.35;;;;;;;-2.79;100.00;101033.97;5116428;27;20117;-87
2022/12/13 13:16:54;;;;;;;77.90;28.08;;;;;;;-2.71;100.00;101034.81;5109391;27;20043;-87
2022/12/13 13:19:20;;;;;;;72.22;27.42;;;;;;;-2.68;100.00;101028.69;5114834;27;20040;-87
2022/12/13 13:21:50;;;;;;;67.70;26.75;;;;;;;-2.71;100.00;101034.81;5098419;27;20811;-87
2022/12/13 13:24:34;;;;;;;71.57;27.42;;;;;;;-2.69;100.00;101024.34;5100870;28;20482;-87
2022/12/13 13:27:09;;;;;;;75.35;25.00;;;;;;;-2.67;100.00;101017.38;5097545;27;20047;-87
2022/12/13 13:29:39;;;;;;;63.35;25.40;;;;;;;-2.67;100.00;101014.75;5110558;27;20368;-86
2022/12/13 13:32:34;;;;;;;71.47;24.40;;;;;;;-2.71;100.00;101013.03;5112712;27;20035;-88
2022/12/13 13:35:35;;;;;;;68.78;25.23;;;;;;;-2.74;100.00;101019.16;5090400;27;20077;-87
2022/12/13 13:38:27;;;;;;;67.25;24.88;;;;;;;-2.78;100.00;101017.44;5081954;27;20047;-86
2022/12/13 13:40:53;;;;;;;61.63;23.80;;;;;;;-2.79;100.00;101020.94;5106545;27;20027;-87
2022/12/13 13:43:29;;;;;;;63.72;24.08;;;;;;;-2.80;100.00;101013.13;5104098;27;20031;-87
2022/12/13 13:46:06;;;;;;;62.88;27.55;;;;;;;-2.82;100.00;101004.44;5106070;27;20036;-87
2022/12/13 13:48:47;;;;;;;70.50;27.35;;;;;;;-2.82;100.00;101005.28;5093318;28;20749;-88
2022/12/13 13:51:35;;;;;;;67.45;26.55;;;;;;;-2.88;100.00;101006.19;5107433;27;20047;-87
2022/12/13 13:54:32;;;;;;;63.80;25.35;;;;;;;-2.88;100.00;101006.19;5107999;28;20135;-87
2022/12/13 13:57:20;;;;;;;68.13;26.58;;;;;;;-2.91;100.00;101006.22;5092308;28;20039;-87
2022/12/13 14:00:14;;;;;;;68.93;26.17;;;;;;;-2.99;100.00;101002.78;5103195;28;20032;-87
2022/12/13 14:03:07;;;;;;;67.05;25.88;;;;;;;-3.06;100.00;101010.63;5107801;27;20043;-87
2022/12/13 14:05:50;;;;;;;68.88;26.08;;;;;;;-2.98;100.00;101003.66;5106743;27;20042;-86
2022/12/13 14:08:43;;;;;;;69.95;25.45;;;;;;;-3.02;100.00;101001.94;5089232;28;20041;-87
2022/12/13 14:11:36;;;;;;;76.45;27.30;;;;;;;-3.06;100.00;101003.72;5071631;28;20083;-88
2022/12/13 14:14:46;;;;;;;75.78;28.08;;;;;;;-2.97;100.00;101002.78;5076691;28;20033;-87
2022/12/13 14:17:40;;;;;;;68.55;29.10;;;;;;;-3.02;100.00;100994.97;5073192;28;20032;-87
2022/12/13 14:20:30;;;;;;;72.03;28.08;;;;;;;-3.08;100.00;100997.63;5105786;27;20051;-87
2022/12/13 14:23:04;;;;;;;73.45;29.73;;;;;;;-2.99;100.00;100992.34;5082664;28;20043;-86
2022/12/13 14:25:54;;;;;;;87.15;29.63;;;;;;;-2.89;100.00;100998.38;5078244;28;20047;-88
2022/12/13 14:28:44;;;;;;;77.00;28.60;;;;;;;-2.97;100.00;100989.72;5083792;28;20795;-87
2022/12/13 14:31:25;;;;;;;76.82;28.08;;;;;;;-3.07;100.00;100995.88;5066452;28;20029;-88
2022/12/13 14:33:52;;;;;;;65.68;26.42;;;;;;;-3.17;100.00;100988.09;5064982;28;20563;-87
2022/12/13 14:36:27;;;;;;;69.75;26.67;;;;;;;-3.22;100.00;100994.19;5087120;28;20591;-88
2022/12/13 14:39:14;;;;;;;75.00;26.65;;;;;;;-3.18;100.00;100991.56;5063892;28;20035;-88
2022/12/13 14:41:47;;;;;;;76.28;28.63;;;;;;;-3.20;100.00;100987.25;5085288;28;20043;-88
2022/12/13 14:44:24;;;;;;;70.03;27.55;;;;;;;-3.25;100.00;100984.66;5083227;28;20686;-88
2022/12/13 14:46:55;;;;;;;89.63;32.67;;;;;;;-3.41;100.00;100981.25;5077651;28;20032;-88
2022/12/13 14:49:26;;;;;;;81.18;30.23;;;;;;;-3.47;100.00;100986.47;5081620;28;20032;-88
2022/12/13 14:52:00;;;;;;;78.88;30.30;;;;;;;-3.39;100.00;100989.94;5081138;28;20083;-88
2022/12/13 14:54:29;;;;;;;78.72;30.10;;;;;;;-3.40;100.00;100987.34;5078614;28;20047;-87
2022/12/13 14:57:02;;;;;;;74.00;27.63;;;;;;;-3.50;100.00;100986.50;5066116;28;20043;-87
2022/12/13 14:59:28;;;;;;;90.95;31.27;;;;;;;-3.52;100.00;100982.16;5076529;28;20486;-88
2022/12/13 15:02:01;;;;;;;71.18;27.60;;;;;;;-3.54;100.00;100984.78;5081252;28;20041;-88
2022/12/13 15:04:31;;;;;;;70.15;28.17;;;;;;;-3.64;100.00;100983.06;5071666;28;20132;-87
2022/12/13 15:07:50;;;;;;;76.28;30.17;;;;;;;-3.59;100.00;100983.06;5086881;28;20048;-88
2022/12/13 15:10:18;;;;;;;76.03;30.30;;;;;;;-3.69;100.00;100984.81;5008275;28;20057;-88
2022/12/13 15:12:45;;;;;;;91.97;31.42;;;;;;;-3.74;100.00;100977.03;4992859;28;20556;-88
2022/12/13 15:15:23;;;;;;;72.32;30.17;;;;;;;-3.79;100.00;100970.97;4992166;28;20053;-88
2022/12/13 15:18:26;;;;;;;67.35;29.73;;;;;;;-3.79;100.00;100975.31;5008806;28;20049;-87
2022/12/13 15:20:58;;;;;;;90.38;31.45;;;;;;;-3.81;100.00;100974.47;4989955;28;20058;-87
2022/12/13 15:23:32;;;;;;;;;;;;;;;-3.81;100.00;100974.47;5003661;28;20368;-87
2022/12/13 15:26:15;;;;;;;86.25;29.38;;;;;;;-3.89;100.00;100968.38;4994070;28;19952;-87
2022/12/13 15:28:45;;;;;;;79.50;29.38;;;;;;;-4.03;100.00;100961.47;5004156;28;20545;-88
2022/12/13 15:31:13;;;;;;;94.80;31.73;;;;;;;-4.08;100.00;100964.94;4990179;28;20117;-88
2022/12/13 15:33:39;;;;;;;73.97;29.63;;;;;;;-4.07;100.00;100962.31;4995410;28;20069;-86
2022/12/13 15:36:15;;;;;;;76.20;31.58;;;;;;;-4.03;100.00;100960.59;4993212;28;20062;-87
2022/12/13 15:38:53;;;;;;;76.40;30.02;;;;;;;-4.06;100.00;100956.28;5013600;28;20093;-87
2022/12/13 15:41:27;;;;;;;95.10;33.45;;;;;;;-4.11;100.00;100959.75;5036385;28;20040;-88
2022/12/13 15:43:57;;;;;;;79.40;30.42;;;;;;;-4.21;100.00;100961.50;5089739;28;20047;-88
2022/12/13 15:46:29;;;;;;;85.05;31.85;;;;;;;-4.23;100.00;100955.41;5080458;28;20036;-87
2022/12/13 15:48:58;;;;;;;82.22;30.08;;;;;;;-4.19;100.00;100950.22;5082640;28;20036;-87
2022/12/13 15:51:24;;;;;;;86.88;32.85;;;;;;;-4.20;100.00;100940.66;5072294;28;20078;-86
2022/12/13 15:54:08;;;;;;;80.25;31.73;;;;;;;-4.20;100.00;100934.59;5083850;28;20155;-86
2022/12/13 15:56:38;;;;;;;82.10;31.38;;;;;;;-4.25;100.00;100933.75;5084391;28;20036;-86
2022/12/13 15:59:21;;;;;;;77.32;32.13;;;;;;;-4.27;100.00;100930.25;5080788;28;20126;-87
2022/12/13 16:01:50;;;;;;;80.10;32.22;;;;;;;-4.29;100.00;100924.19;5093003;28;20047;-87
2022/12/13 16:04:21;;;;;;;89.22;32.70;;;;;;;-4.29;100.00;100926.78;5084754;28;20035;-87
2022/12/13 16:06:49;;;;;;;80.73;32.43;;;;;;;-4.29;100.00;100925.06;5083317;28;20035;-87
2022/12/13 16:09:19;;;;;;;82.90;30.75;;;;;;;-4.30;100.00;100919.88;5083911;28;20048;-87
2022/12/13 16:11:51;;;;;;;89.47;33.42;;;;;;;-4.41;100.00;100927.69;5069654;28;20059;-87
2022/12/13 16:14:29;;;;;;;85.18;33.15;;;;;;;-4.39;100.00;100923.34;5101065;27;20037;-88
2022/12/13 16:17:01;;;;;;;86.65;34.25;;;;;;;-4.41;100.00;100922.50;5082330;28;20051;-85
2022/12/13 16:19:27;;;;;;;80.68;31.08;;;;;;;-4.46;100.00;100913.81;5082694;28;20143;-88
2022/12/13 16:21:52;;;;;;;91.43;33.97;;;;;;;-4.36;100.00;100910.34;5089176;28;20829;-88
2022/12/13 16:24:18;;;;;;;82.75;33.40;;;;;;;-4.44;100.00;100907.72;5099219;28;20012;-88
2022/12/13 16:26:46;;;;;;;90.95;35.70;;;;;;;-4.42;100.00;100910.31;5088630;28;20119;-89
2022/12/13 16:29:18;;;;;;;76.82;30.92;;;;;;;-4.49;100.00;100912.06;5084712;28;20036;-86
2022/12/13 16:31:44;;;;;;;72.93;30.98;;;;;;;-4.46;100.00;100904.28;5084052;28;20092;-88
2022/12/13 16:34:10;;;;;;;73.20;31.80;;;;;;;-4.48;100.00;100900.78;5076268;28;20126;-87
2022/12/13 16:36:36;;;;;;;84.95;33.70;;;;;;;-4.45;100.00;100898.19;5078303;28;20575;-86
2022/12/13 16:39:09;;;;;;;87.25;33.08;;;;;;;-4.58;100.00;100903.41;5090339;28;20035;-89